sensor_id;sensor_type;location;lat;lon;timestamp;P1;durP1;ratioP1;P2;durP2;ratioP2
4430;SDS011;2228;48.140;11.488;2023-03-30T00:01:16;7.78;;;1.90;;
4430;SDS011;2228;48.140;11.488;2023-03-30T00:03:43;5.55;;;2.22;;
4430;SDS011;2228;48.140;11.488;2023-03-30T00:06:13;6.55;;;2.10;;
4430;SDS011;2228;48.140;11.488;2023-03-30T00:08:45;6.97;;;2.20;;
4430;SDS011;2228;48.140;11.488;2023-03-30T00:11:13;9.45;;;2.60;;
4430;SDS011;2228;48.140;11.488;2023-03-30T00:13:41;8.32;;;2.17;;
4430;SDS011;2228;48.140;11.488;2023-03-30T00:16:10;8.57;;;2.72;;
4430;SDS011;2228;48.140;11.488;2023-03-30T00:18:38;9.80;;;2.03;;
4430;SDS011;2228;48.140;11.488;2023-03-30T00:21:05;7.32;;;2.10;;
4430;SDS011;2228;48.140;11.488;2023-03-30T00:23:36;10.27;;;2.50;;
4430;SDS011;2228;48.140;11.488;2023-03-30T00:26:04;4.32;;;1.88;;
4430;SDS011;2228;48.140;11.488;2023-03-30T00:28:31;9.03;;;3.30;;
4430;SDS011;2228;48.140;11.488;2023-03-30T00:30:58;7.10;;;2.47;;
4430;SDS011;2228;48.140;11.488;2023-03-30T00:33:26;10.68;;;2.50;;
4430;SDS011;2228;48.140;11.488;2023-03-30T00:35:53;9.02;;;1.85;;
4430;SDS011;2228;48.140;11.488;2023-03-30T00:38:21;10.07;;;2.10;;
4430;SDS011;2228;48.140;11.488;2023-03-30T00:40:53;7.03;;;2.40;;
4430;SDS011;2228;48.140;11.488;2023-03-30T00:43:22;12.82;;;2.75;;
4430;SDS011;2228;48.140;11.488;2023-03-30T00:45:49;7.50;;;1.92;;
4430;SDS011;2228;48.140;11.488;2023-03-30T00:48:17;7.30;;;2.15;;
4430;SDS011;2228;48.140;11.488;2023-03-30T00:50:48;4.57;;;1.75;;
4430;SDS011;2228;48.140;11.488;2023-03-30T00:53:19;8.13;;;2.20;;
4430;SDS011;2228;48.140;11.488;2023-03-30T00:55:50;8.63;;;2.00;;
4430;SDS011;2228;48.140;11.488;2023-03-30T00:58:20;8.83;;;2.10;;
4430;SDS011;2228;48.140;11.488;2023-03-30T01:00:49;8.20;;;2.50;;
4430;SDS011;2228;48.140;11.488;2023-03-30T01:03:18;8.32;;;1.85;;
4430;SDS011;2228;48.140;11.488;2023-03-30T01:05:49;5.32;;;2.40;;
4430;SDS011;2228;48.140;11.488;2023-03-30T01:08:17;9.88;;;2.30;;
4430;SDS011;2228;48.140;11.488;2023-03-30T01:10:48;8.80;;;2.22;;
4430;SDS011;2228;48.140;11.488;2023-03-30T01:13:16;6.85;;;2.10;;
4430;SDS011;2228;48.140;11.488;2023-03-30T01:15:49;12.57;;;2.20;;
4430;SDS011;2228;48.140;11.488;2023-03-30T01:18:29;10.23;;;2.40;;
4430;SDS011;2228;48.140;11.488;2023-03-30T01:21:21;11.90;;;2.58;;
4430;SDS011;2228;48.140;11.488;2023-03-30T01:27:31;9.02;;;2.20;;
4430;SDS011;2228;48.140;11.488;2023-03-30T01:33:19;9.80;;;2.20;;
4430;SDS011;2228;48.140;11.488;2023-03-30T01:36:24;6.43;;;1.90;;
4430;SDS011;2228;48.140;11.488;2023-03-30T01:39:26;8.75;;;1.90;;
4430;SDS011;2228;48.140;11.488;2023-03-30T01:42:05;6.95;;;2.30;;
4430;SDS011;2228;48.140;11.488;2023-03-30T01:44:42;7.80;;;1.70;;
4430;SDS011;2228;48.140;11.488;2023-03-30T01:47:15;9.40;;;2.35;;
4430;SDS011;2228;48.140;11.488;2023-03-30T01:49:44;9.48;;;2.10;;
4430;SDS011;2228;48.140;11.488;2023-03-30T01:52:22;9.20;;;1.80;;
4430;SDS011;2228;48.140;11.488;2023-03-30T01:54:55;8.15;;;1.88;;
4430;SDS011;2228;48.140;11.488;2023-03-30T01:57:27;8.88;;;2.08;;
4430;SDS011;2228;48.140;11.488;2023-03-30T02:00:00;9.98;;;1.92;;
4430;SDS011;2228;48.140;11.488;2023-03-30T02:02:37;9.60;;;2.15;;
4430;SDS011;2228;48.140;11.488;2023-03-30T02:05:06;6.78;;;2.08;;
4430;SDS011;2228;48.140;11.488;2023-03-30T02:07:35;10.15;;;2.40;;
4430;SDS011;2228;48.140;11.488;2023-03-30T02:10:08;8.73;;;2.30;;
4430;SDS011;2228;48.140;11.488;2023-03-30T02:12:37;10.15;;;2.50;;
4430;SDS011;2228;48.140;11.488;2023-03-30T02:15:07;12.32;;;3.10;;
4430;SDS011;2228;48.140;11.488;2023-03-30T02:17:38;12.13;;;2.50;;
4430;SDS011;2228;48.140;11.488;2023-03-30T02:20:06;10.13;;;2.45;;
4430;SDS011;2228;48.140;11.488;2023-03-30T02:22:35;17.60;;;2.60;;
4430;SDS011;2228;48.140;11.488;2023-03-30T02:25:02;12.13;;;2.15;;
4430;SDS011;2228;48.140;11.488;2023-03-30T02:27:31;10.23;;;2.50;;
4430;SDS011;2228;48.140;11.488;2023-03-30T02:30:02;14.15;;;2.70;;
4430;SDS011;2228;48.140;11.488;2023-03-30T02:32:32;12.27;;;2.30;;
4430;SDS011;2228;48.140;11.488;2023-03-30T02:38:21;10.90;;;2.60;;
4430;SDS011;2228;48.140;11.488;2023-03-30T02:41:02;10.85;;;2.90;;
4430;SDS011;2228;48.140;11.488;2023-03-30T02:43:44;14.83;;;2.30;;
4430;SDS011;2228;48.140;11.488;2023-03-30T02:46:26;9.80;;;2.75;;
4430;SDS011;2228;48.140;11.488;2023-03-30T02:49:12;15.85;;;2.60;;
4430;SDS011;2228;48.140;11.488;2023-03-30T02:51:44;16.02;;;3.17;;
4430;SDS011;2228;48.140;11.488;2023-03-30T02:54:22;13.10;;;2.40;;
4430;SDS011;2228;48.140;11.488;2023-03-30T02:57:01;14.15;;;3.13;;
4430;SDS011;2228;48.140;11.488;2023-03-30T02:59:36;18.90;;;3.73;;
4430;SDS011;2228;48.140;11.488;2023-03-30T03:02:10;12.60;;;3.80;;
4430;SDS011;2228;48.140;11.488;2023-03-30T03:04:42;10.67;;;2.77;;
4430;SDS011;2228;48.140;11.488;2023-03-30T03:07:10;13.40;;;3.15;;
4430;SDS011;2228;48.140;11.488;2023-03-30T03:09:39;18.30;;;3.50;;
4430;SDS011;2228;48.140;11.488;2023-03-30T03:12:06;17.08;;;3.38;;
4430;SDS011;2228;48.140;11.488;2023-03-30T03:14:33;14.75;;;3.10;;
4430;SDS011;2228;48.140;11.488;2023-03-30T03:17:01;15.55;;;3.60;;
4430;SDS011;2228;48.140;11.488;2023-03-30T03:19:30;12.93;;;3.80;;
4430;SDS011;2228;48.140;11.488;2023-03-30T03:21:57;16.70;;;3.22;;
4430;SDS011;2228;48.140;11.488;2023-03-30T03:24:24;14.48;;;3.22;;
4430;SDS011;2228;48.140;11.488;2023-03-30T03:26:50;11.98;;;3.00;;
4430;SDS011;2228;48.140;11.488;2023-03-30T03:29:17;16.60;;;3.45;;
4430;SDS011;2228;48.140;11.488;2023-03-30T03:31:44;16.30;;;3.40;;
4430;SDS011;2228;48.140;11.488;2023-03-30T03:34:12;13.40;;;3.63;;
4430;SDS011;2228;48.140;11.488;2023-03-30T03:36:39;13.57;;;3.60;;
4430;SDS011;2228;48.140;11.488;2023-03-30T03:39:07;17.40;;;3.40;;
4430;SDS011;2228;48.140;11.488;2023-03-30T03:41:34;16.58;;;3.38;;
4430;SDS011;2228;48.140;11.488;2023-03-30T03:44:01;18.25;;;3.78;;
4430;SDS011;2228;48.140;11.488;2023-03-30T03:46:28;17.58;;;4.10;;
4430;SDS011;2228;48.140;11.488;2023-03-30T03:48:56;15.60;;;4.88;;
4430;SDS011;2228;48.140;11.488;2023-03-30T03:51:26;19.13;;;4.03;;
4430;SDS011;2228;48.140;11.488;2023-03-30T03:53:54;18.35;;;3.83;;
4430;SDS011;2228;48.140;11.488;2023-03-30T03:56:21;20.38;;;4.30;;
4430;SDS011;2228;48.140;11.488;2023-03-30T03:58:50;16.73;;;4.70;;
4430;SDS011;2228;48.140;11.488;2023-03-30T04:01:17;21.08;;;4.60;;
4430;SDS011;2228;48.140;11.488;2023-03-30T04:03:46;22.88;;;5.00;;
4430;SDS011;2228;48.140;11.488;2023-03-30T04:06:13;23.07;;;5.37;;
4430;SDS011;2228;48.140;11.488;2023-03-30T04:08:42;18.67;;;4.80;;
4430;SDS011;2228;48.140;11.488;2023-03-30T04:11:10;15.57;;;3.90;;
4430;SDS011;2228;48.140;11.488;2023-03-30T04:13:37;21.23;;;4.80;;
4430;SDS011;2228;48.140;11.488;2023-03-30T04:16:05;17.83;;;4.13;;
4430;SDS011;2228;48.140;11.488;2023-03-30T04:18:33;15.40;;;5.25;;
4430;SDS011;2228;48.140;11.488;2023-03-30T04:21:01;17.35;;;4.85;;
4430;SDS011;2228;48.140;11.488;2023-03-30T04:23:31;19.92;;;5.53;;
4430;SDS011;2228;48.140;11.488;2023-03-30T04:26:01;22.17;;;5.05;;
4430;SDS011;2228;48.140;11.488;2023-03-30T04:28:30;20.67;;;4.90;;
4430;SDS011;2228;48.140;11.488;2023-03-30T04:30:58;22.42;;;5.32;;
4430;SDS011;2228;48.140;11.488;2023-03-30T04:33:26;21.55;;;4.88;;
4430;SDS011;2228;48.140;11.488;2023-03-30T04:35:53;18.23;;;5.30;;
4430;SDS011;2228;48.140;11.488;2023-03-30T04:38:20;20.73;;;5.82;;
4430;SDS011;2228;48.140;11.488;2023-03-30T04:40:47;19.75;;;5.82;;
4430;SDS011;2228;48.140;11.488;2023-03-30T04:43:16;20.80;;;5.63;;
4430;SDS011;2228;48.140;11.488;2023-03-30T04:45:46;31.80;;;6.07;;
4430;SDS011;2228;48.140;11.488;2023-03-30T04:48:17;34.33;;;6.32;;
4430;SDS011;2228;48.140;11.488;2023-03-30T04:50:49;34.50;;;6.30;;
4430;SDS011;2228;48.140;11.488;2023-03-30T04:53:18;21.30;;;5.03;;
4430;SDS011;2228;48.140;11.488;2023-03-30T04:55:47;29.88;;;6.15;;
4430;SDS011;2228;48.140;11.488;2023-03-30T04:58:17;27.40;;;5.80;;
4430;SDS011;2228;48.140;11.488;2023-03-30T05:00:44;26.63;;;6.85;;
4430;SDS011;2228;48.140;11.488;2023-03-30T05:03:11;32.33;;;7.20;;
4430;SDS011;2228;48.140;11.488;2023-03-30T05:05:38;22.75;;;6.32;;
4430;SDS011;2228;48.140;11.488;2023-03-30T05:08:05;26.90;;;6.00;;
4430;SDS011;2228;48.140;11.488;2023-03-30T05:10:32;19.80;;;5.80;;
4430;SDS011;2228;48.140;11.488;2023-03-30T05:13:00;31.00;;;6.77;;
4430;SDS011;2228;48.140;11.488;2023-03-30T05:15:28;27.05;;;6.10;;
4430;SDS011;2228;48.140;11.488;2023-03-30T05:17:55;22.50;;;7.30;;
4430;SDS011;2228;48.140;11.488;2023-03-30T05:20:22;25.50;;;7.47;;
4430;SDS011;2228;48.140;11.488;2023-03-30T05:22:49;32.63;;;7.55;;
4430;SDS011;2228;48.140;11.488;2023-03-30T05:25:18;38.88;;;7.93;;
4430;SDS011;2228;48.140;11.488;2023-03-30T05:27:45;28.73;;;7.43;;
4430;SDS011;2228;48.140;11.488;2023-03-30T05:30:12;30.67;;;7.25;;
4430;SDS011;2228;48.140;11.488;2023-03-30T05:32:40;26.15;;;5.97;;
4430;SDS011;2228;48.140;11.488;2023-03-30T05:35:08;27.98;;;6.53;;
4430;SDS011;2228;48.140;11.488;2023-03-30T05:37:36;26.93;;;7.70;;
4430;SDS011;2228;48.140;11.488;2023-03-30T05:40:03;26.90;;;7.20;;
4430;SDS011;2228;48.140;11.488;2023-03-30T05:42:33;26.58;;;6.90;;
4430;SDS011;2228;48.140;11.488;2023-03-30T05:45:00;22.13;;;6.70;;
4430;SDS011;2228;48.140;11.488;2023-03-30T05:47:27;24.17;;;6.55;;
4430;SDS011;2228;48.140;11.488;2023-03-30T05:49:56;22.17;;;7.13;;
4430;SDS011;2228;48.140;11.488;2023-03-30T05:52:22;26.35;;;8.30;;
4430;SDS011;2228;48.140;11.488;2023-03-30T05:54:49;37.67;;;8.00;;
4430;SDS011;2228;48.140;11.488;2023-03-30T05:57:16;19.92;;;6.75;;
4430;SDS011;2228;48.140;11.488;2023-03-30T05:59:43;23.55;;;7.10;;
4430;SDS011;2228;48.140;11.488;2023-03-30T06:02:11;26.63;;;7.55;;
4430;SDS011;2228;48.140;11.488;2023-03-30T06:04:38;28.65;;;7.82;;
4430;SDS011;2228;48.140;11.488;2023-03-30T06:10:21;28.95;;;8.75;;
4430;SDS011;2228;48.140;11.488;2023-03-30T06:13:02;26.02;;;7.65;;
4430;SDS011;2228;48.140;11.488;2023-03-30T06:15:32;30.92;;;7.55;;
4430;SDS011;2228;48.140;11.488;2023-03-30T06:18:00;32.90;;;8.10;;
4430;SDS011;2228;48.140;11.488;2023-03-30T06:20:29;31.80;;;7.30;;
4430;SDS011;2228;48.140;11.488;2023-03-30T06:23:00;26.88;;;7.65;;
4430;SDS011;2228;48.140;11.488;2023-03-30T06:25:27;26.75;;;8.15;;
4430;SDS011;2228;48.140;11.488;2023-03-30T06:27:55;22.40;;;7.30;;
4430;SDS011;2228;48.140;11.488;2023-03-30T06:30:22;23.05;;;7.70;;
4430;SDS011;2228;48.140;11.488;2023-03-30T06:32:50;22.58;;;6.53;;
4430;SDS011;2228;48.140;11.488;2023-03-30T06:35:17;22.07;;;6.53;;
4430;SDS011;2228;48.140;11.488;2023-03-30T06:37:50;28.15;;;7.40;;
4430;SDS011;2228;48.140;11.488;2023-03-30T06:40:19;21.88;;;6.70;;
4430;SDS011;2228;48.140;11.488;2023-03-30T06:42:46;18.35;;;5.43;;
4430;SDS011;2228;48.140;11.488;2023-03-30T06:45:13;20.83;;;7.10;;
4430;SDS011;2228;48.140;11.488;2023-03-30T06:47:40;24.13;;;6.68;;
4430;SDS011;2228;48.140;11.488;2023-03-30T06:50:07;16.70;;;5.40;;
4430;SDS011;2228;48.140;11.488;2023-03-30T06:52:36;21.17;;;6.05;;
4430;SDS011;2228;48.140;11.488;2023-03-30T06:55:04;24.05;;;5.60;;
4430;SDS011;2228;48.140;11.488;2023-03-30T06:57:32;16.13;;;5.23;;
4430;SDS011;2228;48.140;11.488;2023-03-30T06:59:59;15.95;;;5.00;;
4430;SDS011;2228;48.140;11.488;2023-03-30T07:02:30;15.83;;;5.73;;
4430;SDS011;2228;48.140;11.488;2023-03-30T07:04:57;21.57;;;5.00;;
4430;SDS011;2228;48.140;11.488;2023-03-30T07:07:25;18.80;;;4.93;;
4430;SDS011;2228;48.140;11.488;2023-03-30T07:09:52;17.35;;;4.65;;
4430;SDS011;2228;48.140;11.488;2023-03-30T07:12:19;15.43;;;5.50;;
4430;SDS011;2228;48.140;11.488;2023-03-30T07:14:47;16.65;;;5.03;;
4430;SDS011;2228;48.140;11.488;2023-03-30T07:17:14;19.75;;;4.80;;
4430;SDS011;2228;48.140;11.488;2023-03-30T07:19:41;18.67;;;5.40;;
4430;SDS011;2228;48.140;11.488;2023-03-30T07:22:08;13.50;;;4.50;;
4430;SDS011;2228;48.140;11.488;2023-03-30T07:24:35;16.13;;;5.20;;
4430;SDS011;2228;48.140;11.488;2023-03-30T07:27:02;19.58;;;4.60;;
4430;SDS011;2228;48.140;11.488;2023-03-30T07:29:29;17.52;;;4.15;;
4430;SDS011;2228;48.140;11.488;2023-03-30T07:31:57;13.55;;;3.53;;
4430;SDS011;2228;48.140;11.488;2023-03-30T07:34:24;21.38;;;4.00;;
4430;SDS011;2228;48.140;11.488;2023-03-30T07:36:52;16.05;;;3.67;;
4430;SDS011;2228;48.140;11.488;2023-03-30T07:39:19;15.15;;;3.80;;
4430;SDS011;2228;48.140;11.488;2023-03-30T07:41:46;16.50;;;3.28;;
4430;SDS011;2228;48.140;11.488;2023-03-30T07:44:13;17.45;;;3.70;;
4430;SDS011;2228;48.140;11.488;2023-03-30T07:46:40;18.67;;;4.03;;
4430;SDS011;2228;48.140;11.488;2023-03-30T07:49:08;18.10;;;4.23;;
4430;SDS011;2228;48.140;11.488;2023-03-30T07:51:35;13.50;;;3.72;;
4430;SDS011;2228;48.140;11.488;2023-03-30T07:54:02;13.40;;;3.50;;
4430;SDS011;2228;48.140;11.488;2023-03-30T07:56:29;11.38;;;3.80;;
4430;SDS011;2228;48.140;11.488;2023-03-30T07:58:57;14.15;;;4.30;;
4430;SDS011;2228;48.140;11.488;2023-03-30T08:01:24;13.40;;;3.90;;
4430;SDS011;2228;48.140;11.488;2023-03-30T08:03:52;16.42;;;4.38;;
4430;SDS011;2228;48.140;11.488;2023-03-30T08:06:22;15.57;;;4.20;;
4430;SDS011;2228;48.140;11.488;2023-03-30T08:08:49;25.17;;;3.45;;
4430;SDS011;2228;48.140;11.488;2023-03-30T08:11:16;16.70;;;4.38;;
4430;SDS011;2228;48.140;11.488;2023-03-30T08:13:43;21.58;;;4.57;;
4430;SDS011;2228;48.140;11.488;2023-03-30T08:16:11;17.65;;;4.78;;
4430;SDS011;2228;48.140;11.488;2023-03-30T08:18:38;11.68;;;3.60;;
4430;SDS011;2228;48.140;11.488;2023-03-30T08:21:06;17.20;;;4.75;;
4430;SDS011;2228;48.140;11.488;2023-03-30T08:23:36;17.20;;;4.67;;
4430;SDS011;2228;48.140;11.488;2023-03-30T08:26:03;15.50;;;3.80;;
4430;SDS011;2228;48.140;11.488;2023-03-30T08:28:30;15.25;;;4.93;;
4430;SDS011;2228;48.140;11.488;2023-03-30T08:31:01;19.65;;;4.15;;
4430;SDS011;2228;48.140;11.488;2023-03-30T08:33:28;16.15;;;4.47;;
4430;SDS011;2228;48.140;11.488;2023-03-30T08:35:56;17.52;;;3.53;;
4430;SDS011;2228;48.140;11.488;2023-03-30T08:38:22;15.23;;;4.00;;
4430;SDS011;2228;48.140;11.488;2023-03-30T08:40:51;11.60;;;4.00;;
4430;SDS011;2228;48.140;11.488;2023-03-30T08:43:24;15.80;;;3.80;;
4430;SDS011;2228;48.140;11.488;2023-03-30T08:46:01;17.02;;;3.42;;
4430;SDS011;2228;48.140;11.488;2023-03-30T08:48:29;14.23;;;3.70;;
4430;SDS011;2228;48.140;11.488;2023-03-30T08:51:03;16.33;;;3.40;;
4430;SDS011;2228;48.140;11.488;2023-03-30T08:53:33;15.00;;;3.83;;
4430;SDS011;2228;48.140;11.488;2023-03-30T08:56:03;12.10;;;3.63;;
4430;SDS011;2228;48.140;11.488;2023-03-30T08:58:35;12.65;;;3.60;;
4430;SDS011;2228;48.140;11.488;2023-03-30T09:01:12;11.00;;;3.30;;
4430;SDS011;2228;48.140;11.488;2023-03-30T09:03:44;13.93;;;3.50;;
4430;SDS011;2228;48.140;11.488;2023-03-30T09:06:25;17.88;;;3.83;;
4430;SDS011;2228;48.140;11.488;2023-03-30T09:09:01;14.65;;;3.40;;
4430;SDS011;2228;48.140;11.488;2023-03-30T09:11:32;12.40;;;3.90;;
4430;SDS011;2228;48.140;11.488;2023-03-30T09:14:02;17.13;;;3.00;;
4430;SDS011;2228;48.140;11.488;2023-03-30T09:16:32;8.52;;;2.92;;
4430;SDS011;2228;48.140;11.488;2023-03-30T09:19:04;16.07;;;3.50;;
4430;SDS011;2228;48.140;11.488;2023-03-30T09:21:37;9.85;;;3.05;;
4430;SDS011;2228;48.140;11.488;2023-03-30T09:24:09;23.73;;;4.57;;
4430;SDS011;2228;48.140;11.488;2023-03-30T09:26:42;11.85;;;3.75;;
4430;SDS011;2228;48.140;11.488;2023-03-30T09:29:17;10.50;;;2.35;;
4430;SDS011;2228;48.140;11.488;2023-03-30T09:31:50;11.88;;;3.00;;
4430;SDS011;2228;48.140;11.488;2023-03-30T09:34:23;15.85;;;3.20;;
4430;SDS011;2228;48.140;11.488;2023-03-30T09:36:54;11.17;;;2.83;;
4430;SDS011;2228;48.140;11.488;2023-03-30T09:39:26;12.93;;;3.05;;
4430;SDS011;2228;48.140;11.488;2023-03-30T09:41:59;8.18;;;2.50;;
4430;SDS011;2228;48.140;11.488;2023-03-30T09:44:34;10.27;;;2.95;;
4430;SDS011;2228;48.140;11.488;2023-03-30T09:47:08;17.75;;;3.67;;
4430;SDS011;2228;48.140;11.488;2023-03-30T09:49:44;10.82;;;3.10;;
4430;SDS011;2228;48.140;11.488;2023-03-30T09:52:13;12.40;;;2.85;;
4430;SDS011;2228;48.140;11.488;2023-03-30T09:54:46;9.60;;;2.90;;
4430;SDS011;2228;48.140;11.488;2023-03-30T09:57:23;9.93;;;2.30;;
4430;SDS011;2228;48.140;11.488;2023-03-30T09:59:52;11.70;;;2.70;;
4430;SDS011;2228;48.140;11.488;2023-03-30T10:02:20;10.85;;;3.28;;
4430;SDS011;2228;48.140;11.488;2023-03-30T10:04:53;14.10;;;2.65;;
4430;SDS011;2228;48.140;11.488;2023-03-30T10:07:22;11.98;;;2.85;;
4430;SDS011;2228;48.140;11.488;2023-03-30T10:09:50;11.48;;;3.25;;
4430;SDS011;2228;48.140;11.488;2023-03-30T10:12:18;12.85;;;2.80;;
4430;SDS011;2228;48.140;11.488;2023-03-30T10:14:47;12.95;;;2.70;;
4430;SDS011;2228;48.140;11.488;2023-03-30T10:17:20;13.93;;;3.00;;
4430;SDS011;2228;48.140;11.488;2023-03-30T10:19:50;16.98;;;2.85;;
4430;SDS011;2228;48.140;11.488;2023-03-30T10:22:19;13.15;;;2.90;;
4430;SDS011;2228;48.140;11.488;2023-03-30T10:24:51;15.43;;;3.25;;
4430;SDS011;2228;48.140;11.488;2023-03-30T10:27:24;11.63;;;2.80;;
4430;SDS011;2228;48.140;11.488;2023-03-30T10:29:53;18.02;;;3.40;;
4430;SDS011;2228;48.140;11.488;2023-03-30T10:32:22;18.05;;;4.32;;
4430;SDS011;2228;48.140;11.488;2023-03-30T10:34:55;13.40;;;3.70;;
4430;SDS011;2228;48.140;11.488;2023-03-30T10:37:29;12.05;;;3.38;;
4430;SDS011;2228;48.140;11.488;2023-03-30T10:39:59;15.15;;;3.78;;
4430;SDS011;2228;48.140;11.488;2023-03-30T10:42:30;13.88;;;2.65;;
4430;SDS011;2228;48.140;11.488;2023-03-30T10:45:00;15.77;;;3.65;;
4430;SDS011;2228;48.140;11.488;2023-03-30T10:47:34;13.48;;;2.60;;
4430;SDS011;2228;48.140;11.488;2023-03-30T10:50:12;13.55;;;3.15;;
4430;SDS011;2228;48.140;11.488;2023-03-30T10:52:49;11.20;;;2.97;;
4430;SDS011;2228;48.140;11.488;2023-03-30T10:55:29;16.10;;;3.75;;
4430;SDS011;2228;48.140;11.488;2023-03-30T10:58:05;13.90;;;3.65;;
4430;SDS011;2228;48.140;11.488;2023-03-30T11:00:50;25.10;;;4.03;;
4430;SDS011;2228;48.140;11.488;2023-03-30T11:03:26;11.65;;;3.70;;
4430;SDS011;2228;48.140;11.488;2023-03-30T11:05:57;16.75;;;3.75;;
4430;SDS011;2228;48.140;11.488;2023-03-30T11:08:31;18.42;;;4.40;;
4430;SDS011;2228;48.140;11.488;2023-03-30T11:11:02;10.57;;;4.07;;
4430;SDS011;2228;48.140;11.488;2023-03-30T11:13:33;14.88;;;4.38;;
4430;SDS011;2228;48.140;11.488;2023-03-30T11:16:05;16.02;;;3.90;;
4430;SDS011;2228;48.140;11.488;2023-03-30T11:18:39;16.98;;;3.80;;
4430;SDS011;2228;48.140;11.488;2023-03-30T11:21:14;18.40;;;3.20;;
4430;SDS011;2228;48.140;11.488;2023-03-30T11:23:46;16.55;;;4.00;;
4430;SDS011;2228;48.140;11.488;2023-03-30T11:26:18;14.48;;;4.78;;
4430;SDS011;2228;48.140;11.488;2023-03-30T11:28:58;18.50;;;4.53;;
4430;SDS011;2228;48.140;11.488;2023-03-30T11:31:38;11.70;;;3.50;;
4430;SDS011;2228;48.140;11.488;2023-03-30T11:34:13;12.10;;;3.97;;
4430;SDS011;2228;48.140;11.488;2023-03-30T11:42:09;7.60;;;2.57;;
4430;SDS011;2228;48.140;11.488;2023-03-30T11:44:45;10.88;;;2.95;;
4430;SDS011;2228;48.140;11.488;2023-03-30T11:47:17;6.15;;;2.60;;
4430;SDS011;2228;48.140;11.488;2023-03-30T11:50:02;8.70;;;3.38;;
4430;SDS011;2228;48.140;11.488;2023-03-30T11:52:42;8.45;;;3.30;;
4430;SDS011;2228;48.140;11.488;2023-03-30T11:55:18;8.65;;;2.95;;
4430;SDS011;2228;48.140;11.488;2023-03-30T11:57:55;8.52;;;3.20;;
4430;SDS011;2228;48.140;11.488;2023-03-30T12:00:30;8.43;;;3.43;;
4430;SDS011;2228;48.140;11.488;2023-03-30T12:03:13;8.50;;;2.50;;
4430;SDS011;2228;48.140;11.488;2023-03-30T12:05:49;9.88;;;4.20;;
4430;SDS011;2228;48.140;11.488;2023-03-30T12:08:25;9.45;;;3.97;;
4430;SDS011;2228;48.140;11.488;2023-03-30T12:11:10;11.25;;;3.40;;
4430;SDS011;2228;48.140;11.488;2023-03-30T12:13:41;9.60;;;3.10;;
4430;SDS011;2228;48.140;11.488;2023-03-30T12:16:09;10.70;;;3.70;;
4430;SDS011;2228;48.140;11.488;2023-03-30T12:18:45;8.65;;;3.22;;
4430;SDS011;2228;48.140;11.488;2023-03-30T12:21:25;9.75;;;3.70;;
4430;SDS011;2228;48.140;11.488;2023-03-30T12:23:59;7.43;;;3.25;;
4430;SDS011;2228;48.140;11.488;2023-03-30T12:26:35;9.05;;;3.58;;
4430;SDS011;2228;48.140;11.488;2023-03-30T12:29:08;6.57;;;3.00;;
4430;SDS011;2228;48.140;11.488;2023-03-30T12:31:46;11.00;;;3.30;;
4430;SDS011;2228;48.140;11.488;2023-03-30T12:34:16;6.75;;;3.15;;
4430;SDS011;2228;48.140;11.488;2023-03-30T12:36:45;9.05;;;3.10;;
4430;SDS011;2228;48.140;11.488;2023-03-30T12:39:17;6.03;;;3.05;;
4430;SDS011;2228;48.140;11.488;2023-03-30T12:41:52;9.32;;;3.33;;
4430;SDS011;2228;48.140;11.488;2023-03-30T12:44:32;8.55;;;3.30;;
4430;SDS011;2228;48.140;11.488;2023-03-30T12:50:05;10.00;;;3.50;;
4430;SDS011;2228;48.140;11.488;2023-03-30T12:52:46;9.40;;;3.23;;
4430;SDS011;2228;48.140;11.488;2023-03-30T12:55:26;6.97;;;3.80;;
4430;SDS011;2228;48.140;11.488;2023-03-30T12:58:07;10.50;;;3.40;;
4430;SDS011;2228;48.140;11.488;2023-03-30T13:00:55;10.02;;;3.20;;
4430;SDS011;2228;48.140;11.488;2023-03-30T13:03:46;9.15;;;3.30;;
4430;SDS011;2228;48.140;11.488;2023-03-30T13:06:25;7.38;;;3.40;;
4430;SDS011;2228;48.140;11.488;2023-03-30T13:08:56;11.45;;;3.03;;
4430;SDS011;2228;48.140;11.488;2023-03-30T13:11:42;8.82;;;3.83;;
4430;SDS011;2228;48.140;11.488;2023-03-30T13:14:14;9.17;;;4.00;;
4430;SDS011;2228;48.140;11.488;2023-03-30T13:17:10;12.15;;;3.33;;
4430;SDS011;2228;48.140;11.488;2023-03-30T13:19:41;4.53;;;2.85;;
4430;SDS011;2228;48.140;11.488;2023-03-30T13:25:06;5.55;;;2.63;;
4430;SDS011;2228;48.140;11.488;2023-03-30T13:27:58;7.88;;;2.58;;
4430;SDS011;2228;48.140;11.488;2023-03-30T13:30:27;8.57;;;2.40;;
4430;SDS011;2228;48.140;11.488;2023-03-30T13:32:57;5.78;;;2.30;;
4430;SDS011;2228;48.140;11.488;2023-03-30T13:38:38;5.30;;;1.80;;
4430;SDS011;2228;48.140;11.488;2023-03-30T13:41:23;5.13;;;1.60;;
4430;SDS011;2228;48.140;11.488;2023-03-30T13:44:04;4.00;;;1.60;;
4430;SDS011;2228;48.140;11.488;2023-03-30T13:46:45;4.82;;;2.33;;
4430;SDS011;2228;48.140;11.488;2023-03-30T13:49:21;6.30;;;2.30;;
4430;SDS011;2228;48.140;11.488;2023-03-30T13:52:00;7.00;;;2.67;;
4430;SDS011;2228;48.140;11.488;2023-03-30T13:54:30;5.10;;;2.50;;
4430;SDS011;2228;48.140;11.488;2023-03-30T13:57:02;6.45;;;2.20;;
4430;SDS011;2228;48.140;11.488;2023-03-30T13:59:35;5.38;;;2.35;;
4430;SDS011;2228;48.140;11.488;2023-03-30T14:02:10;4.30;;;2.10;;
4430;SDS011;2228;48.140;11.488;2023-03-30T14:04:40;6.45;;;2.17;;
4430;SDS011;2228;48.140;11.488;2023-03-30T14:07:10;9.07;;;2.77;;
4430;SDS011;2228;48.140;11.488;2023-03-30T14:09:41;8.20;;;2.47;;
4430;SDS011;2228;48.140;11.488;2023-03-30T14:12:10;5.18;;;2.60;;
4430;SDS011;2228;48.140;11.488;2023-03-30T14:14:39;8.60;;;3.03;;
4430;SDS011;2228;48.140;11.488;2023-03-30T14:17:11;6.10;;;3.03;;
4430;SDS011;2228;48.140;11.488;2023-03-30T14:19:46;11.15;;;3.20;;
4430;SDS011;2228;48.140;11.488;2023-03-30T14:22:30;7.57;;;3.50;;
4430;SDS011;2228;48.140;11.488;2023-03-30T14:25:05;9.20;;;3.20;;
4430;SDS011;2228;48.140;11.488;2023-03-30T14:27:48;10.35;;;3.63;;
4430;SDS011;2228;48.140;11.488;2023-03-30T14:30:17;13.98;;;3.83;;
4430;SDS011;2228;48.140;11.488;2023-03-30T14:32:45;6.63;;;3.92;;
4430;SDS011;2228;48.140;11.488;2023-03-30T14:35:14;10.05;;;3.40;;
4430;SDS011;2228;48.140;11.488;2023-03-30T14:38:03;8.68;;;3.58;;
4430;SDS011;2228;48.140;11.488;2023-03-30T14:40:33;9.40;;;3.55;;
4430;SDS011;2228;48.140;11.488;2023-03-30T14:43:18;14.52;;;4.10;;
4430;SDS011;2228;48.140;11.488;2023-03-30T14:45:50;11.95;;;4.00;;
4430;SDS011;2228;48.140;11.488;2023-03-30T14:48:43;9.20;;;4.10;;
4430;SDS011;2228;48.140;11.488;2023-03-30T14:51:26;7.35;;;3.90;;
4430;SDS011;2228;48.140;11.488;2023-03-30T14:54:07;6.72;;;3.53;;
4430;SDS011;2228;48.140;11.488;2023-03-30T14:56:43;9.10;;;3.92;;
4430;SDS011;2228;48.140;11.488;2023-03-30T14:59:19;8.65;;;3.70;;
4430;SDS011;2228;48.140;11.488;2023-03-30T15:01:50;13.15;;;4.10;;
4430;SDS011;2228;48.140;11.488;2023-03-30T15:04:17;8.48;;;3.10;;
4430;SDS011;2228;48.140;11.488;2023-03-30T15:06:49;11.50;;;4.37;;
4430;SDS011;2228;48.140;11.488;2023-03-30T15:09:18;7.68;;;3.30;;
4430;SDS011;2228;48.140;11.488;2023-03-30T15:11:46;12.70;;;3.90;;
4430;SDS011;2228;48.140;11.488;2023-03-30T15:14:21;8.70;;;4.18;;
4430;SDS011;2228;48.140;11.488;2023-03-30T15:16:49;9.40;;;3.88;;
4430;SDS011;2228;48.140;11.488;2023-03-30T15:19:21;12.25;;;3.95;;
4430;SDS011;2228;48.140;11.488;2023-03-30T15:21:53;11.18;;;4.20;;
4430;SDS011;2228;48.140;11.488;2023-03-30T15:24:24;7.47;;;3.75;;
4430;SDS011;2228;48.140;11.488;2023-03-30T15:26:54;8.88;;;4.10;;
4430;SDS011;2228;48.140;11.488;2023-03-30T15:29:25;7.18;;;3.97;;
4430;SDS011;2228;48.140;11.488;2023-03-30T15:31:59;7.88;;;4.10;;
4430;SDS011;2228;48.140;11.488;2023-03-30T15:34:31;9.65;;;3.45;;
4430;SDS011;2228;48.140;11.488;2023-03-30T15:36:58;9.63;;;3.60;;
4430;SDS011;2228;48.140;11.488;2023-03-30T15:39:27;9.63;;;3.40;;
4430;SDS011;2228;48.140;11.488;2023-03-30T15:41:58;6.88;;;4.00;;
4430;SDS011;2228;48.140;11.488;2023-03-30T15:44:32;8.80;;;3.70;;
4430;SDS011;2228;48.140;11.488;2023-03-30T15:47:00;10.02;;;3.70;;